createdAt,value
2022-07-27T00:00:06.548Z,99948.23
2022-07-27T00:03:05.321Z,99947.42
2022-07-27T00:05:40.053Z,99946.39
2022-07-27T00:08:13.657Z,99941.91
2022-07-27T00:10:46.824Z,99939.41
2022-07-27T00:13:20.542Z,99939.89
2022-07-27T00:15:54.169Z,99943.79
2022-07-27T00:18:27.828Z,99946.02
2022-07-27T00:21:01.247Z,99947.40
2022-07-27T00:23:34.620Z,99951.36
2022-07-27T00:26:08.331Z,99955.41
2022-07-27T00:28:41.888Z,99956.66
2022-07-27T00:31:15.104Z,99960.23
2022-07-27T00:33:48.545Z,99962.84
2022-07-27T00:36:21.690Z,99966.52
2022-07-27T00:38:55.024Z,99972.36
2022-07-27T00:41:28.312Z,99972.98
2022-07-27T00:44:05.534Z,99978.31
2022-07-27T00:46:38.851Z,99977.53
2022-07-27T00:49:13.165Z,99985.71
2022-07-27T00:51:47.513Z,99991.64
2022-07-27T00:54:21.294Z,99995.33
2022-07-27T00:56:54.473Z,99993.98
2022-07-27T00:59:29.052Z,99999.67
2022-07-27T01:02:02.426Z,100008.97
2022-07-27T01:04:36.049Z,100009.33
2022-07-27T01:07:10.024Z,100009.46
2022-07-27T01:09:58.737Z,100008.71
2022-07-27T01:12:33.656Z,100012.65
2022-07-27T01:15:08.898Z,100013.26
2022-07-27T01:17:42.668Z,100015.67
2022-07-27T01:20:15.955Z,100014.63
2022-07-27T01:22:49.411Z,100012.59
2022-07-27T01:25:23.219Z,100012.13
2022-07-27T01:27:57.312Z,100007.50
2022-07-27T01:30:32.069Z,100010.57
2022-07-27T01:33:07.228Z,100012.20
2022-07-27T01:35:41.263Z,100015.54
2022-07-27T01:38:15.434Z,100014.92
2022-07-27T01:40:48.738Z,100016.77
2022-07-27T01:43:22.738Z,100006.16
2022-07-27T01:45:56.648Z,100013.29
2022-07-27T01:48:30.183Z,100007.77
2022-07-27T01:51:03.694Z,100008.13
2022-07-27T01:53:37.206Z,100010.72
2022-07-27T01:56:14.730Z,100013.81
2022-07-27T01:58:48.565Z,100023.68
2022-07-27T02:01:23.092Z,100028.31
2022-07-27T02:03:57.233Z,100027.16
2022-07-27T02:06:30.946Z,100028.73
2022-07-27T02:09:04.496Z,100031.76
2022-07-27T02:11:55.916Z,100032.48
2022-07-27T02:14:29.340Z,100034.23
2022-07-27T02:17:02.685Z,100035.95
2022-07-27T02:19:36.863Z,100035.14
2022-07-27T02:22:10.014Z,100032.89
2022-07-27T02:24:43.576Z,100037.02
2022-07-27T02:27:16.642Z,100035.55
2022-07-27T02:29:50.024Z,100040.58
2022-07-27T02:32:23.809Z,100044.84
2022-07-27T02:34:57.013Z,100045.18
2022-07-27T02:37:30.739Z,100048.57
2022-07-27T02:40:04.253Z,100050.66
2022-07-27T02:42:37.856Z,100052.95
2022-07-27T02:45:12.692Z,100057.04
2022-07-27T02:47:46.601Z,100055.88
2022-07-27T02:50:19.779Z,100056.02
2022-07-27T02:52:53.222Z,100058.98
2022-07-27T02:55:26.901Z,100058.65
2022-07-27T02:58:00.324Z,100059.50
2022-07-27T03:00:34.597Z,100065.40
2022-07-27T03:03:07.929Z,100072.30
2022-07-27T03:05:41.133Z,100077.55
2022-07-27T03:08:14.656Z,100078.28
2022-07-27T03:10:48.751Z,100076.79
2022-07-27T03:13:23.357Z,100081.55
2022-07-27T03:15:56.972Z,100079.38
2022-07-27T03:18:30.694Z,100083.00
2022-07-27T03:21:04.306Z,100089.45
2022-07-27T03:23:40.826Z,100092.86
2022-07-27T03:26:14.884Z,100101.23
2022-07-27T03:28:48.353Z,100106.81
2022-07-27T03:31:21.583Z,100109.26
2022-07-27T03:33:54.980Z,100110.13
2022-07-27T03:36:28.581Z,100111.23
2022-07-27T03:39:06.202Z,100115.27
2022-07-27T03:41:39.878Z,100117.17
2022-07-27T03:44:13.370Z,100119.98
2022-07-27T03:46:47.055Z,100116.08
2022-07-27T03:49:20.820Z,100118.08
2022-07-27T03:51:54.139Z,100126.01
2022-07-27T03:54:28.189Z,100124.15
2022-07-27T03:57:02.499Z,100128.67
2022-07-27T03:59:35.783Z,100129.94
2022-07-27T04:02:09.409Z,100134.21
2022-07-27T04:04:42.824Z,100134.37
2022-07-27T04:07:16.089Z,100136.52
2022-07-27T04:09:49.506Z,100137.98
2022-07-27T04:12:24.242Z,100144.33
2022-07-27T04:14:58.450Z,100141.24
2022-07-27T04:17:53.508Z,100143.00
2022-07-27T04:20:25.621Z,100146.95
2022-07-27T04:22:59.019Z,100146.39
2022-07-27T04:25:32.720Z,100148.79
2022-07-27T04:28:06.269Z,100154.23
2022-07-27T04:30:39.533Z,100154.45
2022-07-27T04:33:13.286Z,100157.54
2022-07-27T04:35:47.049Z,100160.48
2022-07-27T04:38:20.442Z,100160.29
2022-07-27T04:40:58.123Z,100166.82
2022-07-27T04:43:32.029Z,100172.61
2022-07-27T04:46:11.766Z,100167.80
2022-07-27T04:48:49.489Z,100171.50
2022-07-27T04:51:23.659Z,100169.95
2022-07-27T04:53:58.361Z,100174.05
2022-07-27T04:56:32.394Z,100172.96
2022-07-27T04:59:05.924Z,100167.67
2022-07-27T05:01:39.284Z,100167.61
2022-07-27T05:04:13.078Z,100170.12
2022-07-27T05:06:47.123Z,100175.37
2022-07-27T05:09:22.525Z,100173.02
2022-07-27T05:11:56.214Z,100170.37
2022-07-27T05:14:29.517Z,100164.38
2022-07-27T05:17:02.901Z,100157.91
2022-07-27T05:19:40.300Z,100162.10
2022-07-27T05:22:14.033Z,100164.03
2022-07-27T05:24:47.271Z,100165.44
2022-07-27T05:27:20.368Z,100170.55
2022-07-27T05:29:53.516Z,100167.20
2022-07-27T05:32:27.418Z,100165.30
2022-07-27T05:35:00.851Z,100167.36
2022-07-27T05:37:34.094Z,100163.52
2022-07-27T05:40:09.331Z,100161.39
2022-07-27T05:42:45.536Z,100167.41
2022-07-27T05:45:19.365Z,100170.05
2022-07-27T05:47:54.710Z,100174.15
2022-07-27T05:50:28.170Z,100171.38
2022-07-27T05:53:01.591Z,100174.97
2022-07-27T05:55:34.916Z,100177.61
2022-07-27T05:58:07.900Z,100181.15
2022-07-27T06:00:41.094Z,100175.70
2022-07-27T06:03:14.374Z,100171.55
2022-07-27T06:05:47.432Z,100171.46
2022-07-27T06:08:20.998Z,100169.53
2022-07-27T06:10:54.249Z,100173.25
2022-07-27T06:13:28.537Z,100177.25
2022-07-27T06:16:02.090Z,100184.55
2022-07-27T06:18:35.281Z,100186.36
2022-07-27T06:21:08.787Z,100190.58
2022-07-27T06:23:42.074Z,100194.97
2022-07-27T06:26:15.680Z,100198.10
2022-07-27T06:28:48.927Z,100197.91
2022-07-27T06:31:22.087Z,100198.99
2022-07-27T06:33:56.049Z,100194.15
2022-07-27T06:36:33.591Z,100189.23
2022-07-27T06:39:07.039Z,100189.14
2022-07-27T06:41:40.204Z,100184.70
2022-07-27T06:44:13.706Z,100186.31
2022-07-27T06:46:49.523Z,100191.20
2022-07-27T06:49:23.416Z,100181.52
2022-07-27T06:51:56.566Z,100178.46
2022-07-27T06:54:29.736Z,100181.33
2022-07-27T06:57:02.703Z,100181.88
2022-07-27T06:59:43.293Z,100178.64
2022-07-27T07:02:17.819Z,100178.52
2022-07-27T07:05:02.830Z,100181.42
2022-07-27T07:07:35.988Z,100184.98
2022-07-27T07:10:11.121Z,100184.98
2022-07-27T07:12:44.295Z,100180.56
2022-07-27T07:15:18.582Z,100186.09
2022-07-27T07:17:51.934Z,100182.14
2022-07-27T07:20:25.837Z,100181.09
2022-07-27T07:22:59.233Z,100181.20
2022-07-27T07:25:32.905Z,100179.17
2022-07-27T07:28:06.300Z,100179.05
2022-07-27T07:30:39.756Z,100176.56
2022-07-27T07:33:12.778Z,100179.55
2022-07-27T07:36:12.302Z,100186.58
2022-07-27T07:38:39.278Z,100186.36
2022-07-27T07:41:12.501Z,100190.21
2022-07-27T07:43:46.110Z,100187.67
2022-07-27T07:46:19.184Z,100190.52
2022-07-27T07:48:53.371Z,100194.02
2022-07-27T07:51:26.531Z,100197.15
2022-07-27T07:53:59.717Z,100197.64
2022-07-27T07:56:33.099Z,100202.52
2022-07-27T07:59:06.624Z,100201.59
2022-07-27T08:01:39.993Z,100200.32
2022-07-27T08:04:13.317Z,100201.86
2022-07-27T08:06:46.424Z,100205.73
2022-07-27T08:09:21.857Z,100206.91
2022-07-27T08:11:55.172Z,100202.63
2022-07-27T08:14:28.317Z,100202.08
2022-07-27T08:17:01.363Z,100200.25
2022-07-27T08:19:39.870Z,100196.52
2022-07-27T08:22:13.483Z,100197.24
2022-07-27T08:24:46.560Z,100199.52
2022-07-27T08:27:19.939Z,100200.64
2022-07-27T08:29:53.011Z,100197.15
2022-07-27T08:32:28.783Z,100200.21
2022-07-27T08:35:02.666Z,100205.37
2022-07-27T08:37:36.283Z,100208.90
2022-07-27T08:43:05.552Z,100216.63
2022-07-27T08:45:42.055Z,100220.30
2022-07-27T08:48:18.160Z,100227.55
2022-07-27T08:50:52.375Z,100230.08
2022-07-27T08:53:26.400Z,100230.46
2022-07-27T08:56:19.610Z,100225.52
2022-07-27T08:58:52.731Z,100226.79
2022-07-27T09:01:26.098Z,100233.98
2022-07-27T09:03:59.561Z,100231.23
2022-07-27T09:06:53.414Z,100235.97
2022-07-27T09:09:27.833Z,100235.20
2022-07-27T09:12:12.445Z,100235.29
2022-07-27T09:14:51.113Z,100233.17
2022-07-27T09:17:48.016Z,100237.48
2022-07-27T09:20:22.880Z,100234.58
2022-07-27T09:22:57.491Z,100235.40
2022-07-27T09:28:34.301Z,100237.31
2022-07-27T09:31:11.641Z,100242.41
2022-07-27T09:33:50.142Z,100235.85
2022-07-27T09:36:25.373Z,100236.38
2022-07-27T09:39:03.595Z,100237.62
2022-07-27T09:41:49.828Z,100232.77
2022-07-27T09:44:42.125Z,100231.31
2022-07-27T09:47:28.000Z,100233.16
2022-07-27T09:50:21.174Z,100233.06
2022-07-27T09:52:54.521Z,100223.99
2022-07-27T09:55:28.270Z,100221.78
2022-07-27T09:58:02.343Z,100229.32
2022-07-27T10:00:35.611Z,100230.52
2022-07-27T10:03:09.996Z,100230.27
2022-07-27T10:05:44.078Z,100232.69
2022-07-27T10:08:17.879Z,100234.48
2022-07-27T10:10:51.683Z,100233.04
2022-07-27T10:13:26.104Z,100234.10
2022-07-27T10:16:00.957Z,100237.78
2022-07-27T10:18:44.536Z,100234.23
2022-07-27T10:21:31.073Z,100245.48
2022-07-27T10:24:06.602Z,100242.27
2022-07-27T10:26:41.769Z,100242.64
2022-07-27T10:29:22.852Z,100239.73
2022-07-27T10:32:03.657Z,100247.73
2022-07-27T10:34:42.990Z,100246.76
2022-07-27T10:37:18.210Z,100247.59
2022-07-27T10:40:15.785Z,100248.64
2022-07-27T10:42:54.407Z,100242.60
2022-07-27T10:46:00.335Z,100237.26
2022-07-27T10:48:48.101Z,100232.36
2022-07-27T10:51:38.560Z,100237.06
2022-07-27T10:54:24.159Z,100237.76
2022-07-27T10:57:00.220Z,100236.36
2022-07-27T11:00:11.176Z,100237.52
2022-07-27T11:02:46.576Z,100226.09
2022-07-27T11:05:58.445Z,100232.46
2022-07-27T11:08:35.972Z,100234.61
2022-07-27T11:11:08.731Z,100231.59
2022-07-27T11:13:41.948Z,100236.40
2022-07-27T11:16:24.408Z,100235.09
2022-07-27T11:19:01.851Z,100228.64
2022-07-27T11:21:37.630Z,100228.34
2022-07-27T11:24:14.158Z,100227.29
2022-07-27T11:26:50.007Z,100225.00
2022-07-27T11:29:25.361Z,100218.45
2022-07-27T11:32:01.165Z,100224.60
2022-07-27T11:34:36.117Z,100227.80
2022-07-27T11:37:19.637Z,100225.34
2022-07-27T11:40:05.015Z,100226.42
2022-07-27T11:42:53.748Z,100228.00
2022-07-27T11:45:33.443Z,100227.85
2022-07-27T11:48:10.199Z,100225.96
2022-07-27T11:51:00.584Z,100228.84
2022-07-27T11:53:34.347Z,100221.79
2022-07-27T11:56:08.228Z,100230.75
2022-07-27T11:59:14.864Z,100226.54
2022-07-27T12:01:52.805Z,100230.85
2022-07-27T12:04:31.425Z,100234.77
2022-07-27T12:07:11.035Z,100228.44
2022-07-27T12:09:48.552Z,100224.30
2022-07-27T12:12:23.581Z,100228.36
2022-07-27T12:14:58.366Z,100226.57
2022-07-27T12:17:33.510Z,100224.94
2022-07-27T12:20:09.561Z,100220.17
2022-07-27T12:22:44.844Z,100214.44
2022-07-27T12:25:33.059Z,100215.15
2022-07-27T12:28:06.072Z,100217.73
2022-07-27T12:30:41.687Z,100218.76
2022-07-27T12:33:30.137Z,100218.23
2022-07-27T12:36:05.249Z,100213.64
2022-07-27T12:38:46.256Z,100214.61
2022-07-27T12:41:29.851Z,100212.55
2022-07-27T12:44:10.701Z,100214.77
2022-07-27T12:46:59.877Z,100218.16
2022-07-27T12:49:36.181Z,100216.86
2022-07-27T12:52:13.959Z,100214.62
2022-07-27T12:54:47.079Z,100214.38
2022-07-27T12:57:33.870Z,100217.66
2022-07-27T13:00:17.757Z,100220.60
2022-07-27T13:02:50.995Z,100224.11
2022-07-27T13:05:24.196Z,100214.41
2022-07-27T13:07:57.912Z,100216.40
2022-07-27T13:10:31.141Z,100216.77
2022-07-27T13:13:04.342Z,100214.39
2022-07-27T13:15:37.956Z,100215.77
2022-07-27T13:18:23.953Z,100218.16
2022-07-27T13:21:02.502Z,100213.92
2022-07-27T13:23:38.383Z,100213.73
2022-07-27T13:26:11.940Z,100216.13
2022-07-27T13:28:45.336Z,100212.94
2022-07-27T13:31:18.891Z,100206.48
2022-07-27T13:33:52.933Z,100203.58
2022-07-27T13:36:26.353Z,100204.94
2022-07-27T13:39:00.546Z,100201.03
2022-07-27T13:41:34.036Z,100198.41
2022-07-27T13:44:10.364Z,100200.02
2022-07-27T13:46:49.400Z,100201.58
2022-07-27T13:49:23.666Z,100202.43
2022-07-27T13:51:57.014Z,100195.97
2022-07-27T13:54:30.927Z,100198.66
2022-07-27T13:57:04.363Z,100195.59
2022-07-27T13:59:37.757Z,100188.02
2022-07-27T14:02:11.861Z,100190.94
2022-07-27T14:04:45.163Z,100186.83
2022-07-27T14:07:18.425Z,100186.15
2022-07-27T14:10:09.815Z,100188.48
2022-07-27T14:12:43.416Z,100191.90
2022-07-27T14:15:17.085Z,100191.88
2022-07-27T14:17:50.690Z,100189.50
2022-07-27T14:20:24.357Z,100189.55
2022-07-27T14:22:57.982Z,100194.91
2022-07-27T14:25:32.410Z,100193.88
2022-07-27T14:28:06.181Z,100193.48
2022-07-27T14:30:40.106Z,100191.26
2022-07-27T14:33:13.465Z,100191.44
2022-07-27T14:35:46.748Z,100191.31
2022-07-27T14:38:26.986Z,100195.33
2022-07-27T14:41:04.531Z,100197.05
2022-07-27T14:43:38.012Z,100193.48
2022-07-27T14:46:11.533Z,100188.86
2022-07-27T14:51:38.975Z,100188.99
2022-07-27T14:54:12.440Z,100190.11
2022-07-27T14:56:45.979Z,100186.41
2022-07-27T14:59:19.718Z,100188.61
2022-07-27T15:01:54.396Z,100183.08
2022-07-27T15:04:28.296Z,100186.55
2022-07-27T15:07:02.286Z,100182.60
2022-07-27T15:09:36.242Z,100179.45
2022-07-27T15:12:10.613Z,100175.46
2022-07-27T15:14:44.009Z,100177.14
2022-07-27T15:17:17.656Z,100175.01
2022-07-27T15:19:52.027Z,100179.27
2022-07-27T15:22:25.822Z,100179.48
2022-07-27T15:24:59.097Z,100182.35
2022-07-27T15:27:32.780Z,100186.06
2022-07-27T15:30:07.412Z,100182.80
2022-07-27T15:32:40.592Z,100177.95
2022-07-27T15:35:14.291Z,100181.30
2022-07-27T15:37:54.623Z,100179.40
2022-07-27T15:40:41.927Z,100176.36
2022-07-27T15:43:17.576Z,100177.30
2022-07-27T15:45:52.412Z,100169.50
2022-07-27T15:48:26.532Z,100172.19
2022-07-27T15:51:00.066Z,100173.60
2022-07-27T15:53:33.983Z,100178.48
2022-07-27T15:56:07.593Z,100179.48
2022-07-27T15:58:41.252Z,100180.53
2022-07-27T16:01:14.638Z,100183.41
2022-07-27T16:03:48.544Z,100180.52
2022-07-27T16:06:22.224Z,100180.23
2022-07-27T16:08:55.570Z,100179.90
2022-07-27T16:11:29.606Z,100176.84
2022-07-27T16:14:03.089Z,100170.71
2022-07-27T16:16:36.659Z,100169.15
2022-07-27T16:19:14.341Z,100166.65
2022-07-27T16:21:53.725Z,100168.14
2022-07-27T16:24:31.329Z,100163.98
2022-07-27T16:27:08.427Z,100158.86
2022-07-27T16:29:41.816Z,100159.80
2022-07-27T16:32:15.090Z,100160.22
2022-07-27T16:34:48.672Z,100158.51
2022-07-27T16:37:22.491Z,100157.83
2022-07-27T16:39:55.873Z,100156.09
2022-07-27T16:42:29.383Z,100157.15
2022-07-27T16:45:02.647Z,100160.90
2022-07-27T16:47:36.821Z,100158.98
2022-07-27T16:50:11.499Z,100162.58
2022-07-27T16:52:44.714Z,100161.87
2022-07-27T16:55:18.194Z,100161.02
2022-07-27T16:57:51.652Z,100159.63
2022-07-27T17:00:25.267Z,100160.73
2022-07-27T17:02:58.623Z,100164.36
2022-07-27T17:05:32.566Z,100165.34
2022-07-27T17:08:06.768Z,100163.95
2022-07-27T17:10:40.180Z,100159.86
2022-07-27T17:13:15.173Z,100150.54
2022-07-27T17:15:49.052Z,100152.07
2022-07-27T17:18:23.224Z,100149.30
2022-07-27T17:20:57.152Z,100148.46
2022-07-27T17:23:35.910Z,100145.55
2022-07-27T17:26:10.713Z,100144.88
2022-07-27T17:28:44.683Z,100142.67
2022-07-27T17:31:19.174Z,100145.09
2022-07-27T17:33:53.028Z,100144.08
2022-07-27T17:36:27.181Z,100146.98
2022-07-27T17:39:02.693Z,100148.78
2022-07-27T17:41:36.329Z,100151.52
2022-07-27T17:44:10.029Z,100152.15
2022-07-27T17:46:43.932Z,100153.82
2022-07-27T17:49:17.544Z,100152.23
2022-07-27T17:51:51.246Z,100150.95
2022-07-27T17:54:24.934Z,100150.68
2022-07-27T17:56:58.466Z,100152.27
2022-07-27T17:59:37.941Z,100160.44
2022-07-27T18:02:13.024Z,100162.55
2022-07-27T18:04:47.210Z,100169.67
2022-07-27T18:07:20.920Z,100172.18
2022-07-27T18:09:55.006Z,100172.46
2022-07-27T18:12:29.089Z,100170.23
2022-07-27T18:15:20.627Z,100170.34
2022-07-27T18:17:54.207Z,100169.58
2022-07-27T18:20:27.887Z,100167.37
2022-07-27T18:23:00.998Z,100161.16
2022-07-27T18:25:34.469Z,100161.64
2022-07-27T18:28:08.403Z,100162.02
2022-07-27T18:30:41.794Z,100165.04
2022-07-27T18:33:15.422Z,100163.27
2022-07-27T18:35:49.968Z,100167.14
2022-07-27T18:38:23.745Z,100168.45
2022-07-27T18:40:57.033Z,100173.36
2022-07-27T18:43:30.949Z,100175.33
2022-07-27T18:46:04.725Z,100183.42
2022-07-27T18:48:38.857Z,100186.96
2022-07-27T18:51:12.148Z,100193.60
2022-07-27T18:53:45.640Z,100199.11
2022-07-27T18:56:19.737Z,100201.31
2022-07-27T18:58:55.103Z,100207.77
2022-07-27T19:01:28.611Z,100210.42
2022-07-27T19:04:02.787Z,100212.98
2022-07-27T19:06:37.390Z,100213.83
2022-07-27T19:09:11.463Z,100218.00
2022-07-27T19:11:46.229Z,100214.45
2022-07-27T19:14:23.895Z,100215.88
2022-07-27T19:16:58.268Z,100215.45
2022-07-27T19:19:32.361Z,100220.95
2022-07-27T19:22:07.058Z,100220.93
2022-07-27T19:24:42.383Z,100224.64
2022-07-27T19:27:17.915Z,100224.28
2022-07-27T19:29:52.229Z,100234.21
2022-07-27T19:32:27.217Z,100236.69
2022-07-27T19:35:01.493Z,100241.00
2022-07-27T19:37:36.341Z,100250.77
2022-07-27T19:40:41.390Z,100252.81
2022-07-27T19:43:07.187Z,100255.43
2022-07-27T19:45:42.076Z,100258.30
2022-07-27T19:48:16.998Z,100261.39
2022-07-27T19:50:51.012Z,100263.98
2022-07-27T19:53:25.182Z,100268.45
2022-07-27T19:56:00.466Z,100282.31
2022-07-27T19:58:34.762Z,100287.16
2022-07-27T20:01:10.369Z,100292.45
2022-07-27T20:03:52.125Z,100292.23
2022-07-27T20:06:29.882Z,100301.52
2022-07-27T20:09:08.038Z,100302.31
2022-07-27T20:11:40.713Z,100306.67
2022-07-27T20:14:14.979Z,100308.57
2022-07-27T20:16:51.285Z,100309.07
2022-07-27T20:19:27.789Z,100310.30
2022-07-27T20:22:02.772Z,100313.73
2022-07-27T20:24:38.064Z,100312.44
2022-07-27T20:27:12.127Z,100314.13
2022-07-27T20:29:46.323Z,100312.92
2022-07-27T20:32:19.949Z,100314.34
2022-07-27T20:34:54.295Z,100315.05
2022-07-27T20:37:28.057Z,100315.10
2022-07-27T20:40:02.090Z,100317.43
2022-07-27T20:42:35.950Z,100321.33
2022-07-27T20:45:16.065Z,100319.79
2022-07-27T20:47:50.013Z,100325.70
2022-07-27T20:50:23.742Z,100328.69
2022-07-27T20:52:58.566Z,100329.95
2022-07-27T20:55:33.404Z,100336.89
2022-07-27T20:58:06.687Z,100341.16
2022-07-27T21:00:40.611Z,100340.24
2022-07-27T21:03:13.864Z,100344.95
2022-07-27T21:05:47.205Z,100347.19
2022-07-27T21:08:20.620Z,100349.40
2022-07-27T21:10:54.229Z,100351.88
2022-07-27T21:13:28.538Z,100357.14
2022-07-27T21:16:02.092Z,100352.38
2022-07-27T21:18:36.140Z,100358.85
2022-07-27T21:21:09.349Z,100364.09
2022-07-27T21:24:00.298Z,100363.70
2022-07-27T21:26:36.383Z,100367.45
2022-07-27T21:29:10.975Z,100371.40
2022-07-27T21:31:49.168Z,100369.52
2022-07-27T21:34:24.535Z,100374.70
2022-07-27T21:36:57.789Z,100376.30
2022-07-27T21:39:31.681Z,100379.81
2022-07-27T21:42:05.447Z,100384.92
2022-07-27T21:44:38.967Z,100388.96
2022-07-27T21:47:14.405Z,100390.50
2022-07-27T21:49:48.206Z,100393.93
2022-07-27T21:52:21.733Z,100400.23
2022-07-27T21:54:55.651Z,100400.13
2022-07-27T21:57:29.208Z,100404.05
2022-07-27T22:00:02.606Z,100409.23
2022-07-27T22:02:37.770Z,100416.20
2022-07-27T22:05:12.147Z,100417.74
2022-07-27T22:07:45.592Z,100424.48
2022-07-27T22:10:59.642Z,100421.98
2022-07-27T22:13:36.108Z,100425.17
2022-07-27T22:16:13.286Z,100429.02
2022-07-27T22:18:47.531Z,100430.14
2022-07-27T22:21:21.545Z,100432.80
2022-07-27T22:23:55.328Z,100432.23
2022-07-27T22:26:29.038Z,100433.81
2022-07-27T22:29:02.743Z,100434.06
2022-07-27T22:31:36.417Z,100437.11
2022-07-27T22:34:10.450Z,100429.82
2022-07-27T22:36:44.346Z,100430.16
2022-07-27T22:39:18.669Z,100433.55
2022-07-27T22:41:52.096Z,100438.10
2022-07-27T22:44:25.585Z,100441.05
2022-07-27T22:46:59.259Z,100443.72
2022-07-27T22:49:32.506Z,100446.20
2022-07-27T22:52:06.462Z,100452.35
2022-07-27T22:54:40.309Z,100447.73
2022-07-27T22:57:14.135Z,100457.02
2022-07-27T22:59:47.153Z,100456.72
2022-07-27T23:02:21.249Z,100458.83
2022-07-27T23:04:56.660Z,100461.44
2022-07-27T23:07:30.362Z,100461.26
2022-07-27T23:10:03.887Z,100462.40
2022-07-27T23:12:37.043Z,100462.33
2022-07-27T23:15:11.976Z,100464.64
2022-07-27T23:17:45.412Z,100465.44
2022-07-27T23:20:19.061Z,100462.78
2022-07-27T23:22:52.681Z,100461.65
2022-07-27T23:25:36.285Z,100457.96
2022-07-27T23:28:10.178Z,100459.03
2022-07-27T23:30:44.046Z,100467.04
2022-07-27T23:33:17.657Z,100470.05
2022-07-27T23:35:51.425Z,100476.67
2022-07-27T23:38:24.692Z,100480.50
2022-07-27T23:40:58.289Z,100487.11
2022-07-27T23:43:31.657Z,100485.60
2022-07-27T23:46:04.966Z,100484.06
2022-07-27T23:48:38.775Z,100490.64
2022-07-27T23:51:17.128Z,100493.89
2022-07-27T23:53:50.789Z,100498.04
2022-07-27T23:56:24.143Z,100493.89
2022-07-27T23:58:57.850Z,100493.36
